Time;durP1;ratioP1;P1;durP2;ratioP2;P2;SDS_P1;SDS_P2;PMS_P1;PMS_P2;Temp;Humidity;BMP_temperature;BMP_pressure;BME280_temperature;BME280_humidity;BME280_pressure;Samples;Min_cycle;Max_cycle;Signal;HPM_P1;HPM_P2
2022/07/23 00:00:47;;;;;;;;;;;20.00;99.90;;;;;;5073365;28;19916;-73
2022/07/23 00:03:13;;;;;;;;;;;19.90;99.90;;;;;;5073926;28;20428;-72
2022/07/23 00:05:39;;;;;;;;;;;19.90;99.90;;;;;;5073422;28;19916;-73
2022/07/23 00:08:05;;;;;;;;;;;19.80;99.90;;;;;;5073708;28;19912;-73
2022/07/23 00:10:30;;;;;;;;;;;19.90;99.90;;;;;;5071838;28;19923;-71
2022/07/23 00:12:56;;;;;;;;;;;19.90;99.90;;;;;;5071969;28;20054;-72
2022/07/23 00:15:21;;;;;;;;;;;19.80;99.90;;;;;;5073141;28;19916;-72
2022/07/23 00:17:47;;;;;;;;;;;19.80;99.90;;;;;;5072731;28;19957;-73
2022/07/23 00:20:12;;;;;;;;;;;19.80;99.90;;;;;;5072078;28;19936;-72
2022/07/23 00:22:51;;;;;;;;;;;19.80;99.90;;;;;;5073117;28;19912;-72
2022/07/23 00:25:17;;;;;;;;;;;19.80;99.90;;;;;;5073314;28;19969;-72
2022/07/23 00:27:43;;;;;;;;;;;19.80;99.90;;;;;;5073411;28;20357;-73
2022/07/23 00:30:09;;;;;;;;;;;19.80;99.90;;;;;;5072906;28;19916;-72
2022/07/23 00:32:50;;;;;;;;;;;19.80;99.90;;;;;;5073257;28;19909;-72
2022/07/23 00:35:19;;;;;;;;;;;19.80;99.90;;;;;;5072912;28;19917;-72
2022/07/23 00:37:44;;;;;;;;;;;19.80;99.90;;;;;;5071575;28;19924;-73
2022/07/23 00:40:10;;;;;;;;;;;19.80;99.90;;;;;;5072813;28;19921;-73
2022/07/23 00:42:35;;;;;;;;;;;19.80;99.90;;;;;;5071611;28;19967;-73
2022/07/23 00:45:01;;;;;;;;;;;19.80;99.90;;;;;;5072567;28;19991;-72
2022/07/23 00:47:26;;;;;;;;;;;19.80;99.90;;;;;;5072983;28;20292;-72
2022/07/23 00:49:52;;;;;;;;;;;19.80;99.90;;;;;;5072887;28;19912;-72
2022/07/23 00:52:18;;;;;;;;;;;19.80;99.90;;;;;;5072728;28;19960;-74
2022/07/23 00:54:44;;;;;;;;;;;19.70;99.90;;;;;;5072769;28;19917;-73
2022/07/23 00:57:09;;;;;;;;;;;19.70;99.90;;;;;;5072662;28;19912;-73
2022/07/23 00:59:34;;;;;;;;;;;19.70;99.90;;;;;;5072692;28;20354;-73
2022/07/23 01:02:00;;;;;;;;;;;19.70;99.90;;;;;;5072436;28;19958;-73
2022/07/23 01:04:25;;;;;;;;;;;19.70;99.90;;;;;;5072444;28;20261;-72
2022/07/23 01:06:51;;;;;;;;;;;19.70;99.90;;;;;;5072374;28;19913;-73
2022/07/23 01:09:17;;;;;;;;;;;19.70;99.90;;;;;;5072323;28;19916;-73
2022/07/23 01:11:42;;;;;;;;;;;19.70;99.90;;;;;;5072088;28;19912;-73
2022/07/23 01:14:14;;;;;;;;;;;19.70;99.90;;;;;;5072316;28;20543;-73
2022/07/23 01:16:41;;;;;;;;;;;19.70;99.90;;;;;;5072130;28;19920;-73
2022/07/23 01:19:06;;;;;;;;;;;19.60;99.90;;;;;;5072038;28;19970;-72
2022/07/23 01:21:36;;;;;;;;;;;19.60;99.90;;;;;;5070480;28;19909;-73
2022/07/23 01:24:02;;;;;;;;;;;19.60;99.90;;;;;;5072010;28;19958;-72
2022/07/23 01:26:27;;;;;;;;;;;19.60;99.90;;;;;;5070468;28;20328;-72
2022/07/23 01:28:53;;;;;;;;;;;19.40;99.90;;;;;;5070572;28;19935;-72
2022/07/23 01:31:19;;;;;;;;;;;19.50;99.90;;;;;;5071677;28;19954;-73
2022/07/23 01:33:44;;;;;;;;;;;19.40;99.90;;;;;;5077739;28;20331;-72
2022/07/23 01:36:10;;;;;;;;;;;19.50;99.90;;;;;;5092007;28;20368;-72
2022/07/23 01:38:35;;;;;;;;;;;19.40;99.90;;;;;;5091703;28;19916;-73
2022/07/23 01:41:01;;;;;;;;;;;19.40;99.90;;;;;;5091835;28;20344;-73
2022/07/23 01:43:26;;;;;;;;;;;19.40;99.90;;;;;;5092349;28;19919;-73
2022/07/23 01:45:52;;;;;;;;;;;19.40;99.90;;;;;;5091622;28;19963;-73
2022/07/23 01:48:17;;;;;;;;;;;19.40;99.90;;;;;;5091636;28;20378;-73
2022/07/23 01:50:43;;;;;;;;;;;19.40;99.90;;;;;;5091512;28;19961;-73
2022/07/23 01:53:08;;;;;;;;;;;19.40;99.90;;;;;;5092012;28;19977;-73
2022/07/23 01:55:34;;;;;;;;;;;19.40;99.90;;;;;;5091525;28;19913;-73
2022/07/23 01:57:59;;;;;;;;;;;19.40;99.90;;;;;;5092018;28;19916;-72
2022/07/23 02:00:24;;;;;;;;;;;19.30;99.90;;;;;;5091772;28;19923;-72
2022/07/23 02:02:50;;;;;;;;;;;19.30;99.90;;;;;;5091770;28;19912;-72
2022/07/23 02:05:15;;;;;;;;;;;19.30;99.90;;;;;;5091584;28;19963;-72
2022/07/23 02:07:42;;;;;;;;;;;19.30;99.90;;;;;;5091662;28;19916;-72
2022/07/23 02:10:08;;;;;;;;;;;19.20;99.90;;;;;;5089911;28;19960;-72
2022/07/23 02:12:33;;;;;;;;;;;19.20;99.90;;;;;;5090003;28;19923;-72
2022/07/23 02:14:59;;;;;;;;;;;19.20;99.90;;;;;;5091441;28;19912;-72
2022/07/23 02:17:24;;;;;;;;;;;19.20;99.90;;;;;;5091330;28;20351;-73
2022/07/23 02:19:50;;;;;;;;;;;19.30;99.90;;;;;;5091241;28;20284;-72
2022/07/23 02:22:15;;;;;;;;;;;19.20;99.90;;;;;;5091205;28;20004;-72
2022/07/23 02:24:41;;;;;;;;;;;19.30;99.90;;;;;;5089797;28;19924;-72
2022/07/23 02:27:06;;;;;;;;;;;19.20;99.90;;;;;;5091052;28;20364;-73
2022/07/23 02:29:32;;;;;;;;;;;19.20;99.90;;;;;;5091126;28;20360;-72
2022/07/23 02:31:57;;;;;;;;;;;19.20;99.90;;;;;;5091019;28;20005;-72
2022/07/23 02:34:23;;;;;;;;;;;19.20;99.90;;;;;;5091251;28;20008;-72
2022/07/23 02:36:48;;;;;;;;;;;19.10;99.90;;;;;;5090830;28;19912;-72
2022/07/23 02:39:14;;;;;;;;;;;19.10;99.90;;;;;;5089880;28;20420;-72
2022/07/23 02:41:39;;;;;;;;;;;19.10;99.90;;;;;;5090706;28;19915;-72
2022/07/23 02:44:05;;;;;;;;;;;19.10;99.90;;;;;;5090029;28;19961;-73
2022/07/23 02:46:31;;;;;;;;;;;19.20;99.90;;;;;;5091111;28;20097;-72
2022/07/23 02:48:56;;;;;;;;;;;19.20;99.90;;;;;;5091166;28;20139;-73
2022/07/23 02:51:22;;;;;;;;;;;19.20;99.90;;;;;;5090990;28;20272;-72
2022/07/23 02:53:47;;;;;;;;;;;19.20;99.90;;;;;;5090990;28;19923;-72
2022/07/23 02:56:13;;;;;;;;;;;19.20;99.90;;;;;;5090854;28;20318;-72
2022/07/23 02:58:38;;;;;;;;;;;19.10;99.90;;;;;;5090331;28;19912;-73
2022/07/23 03:01:04;;;;;;;;;;;19.10;99.90;;;;;;5090794;28;20290;-73
2022/07/23 03:03:29;;;;;;;;;;;19.20;99.90;;;;;;5090406;28;19919;-72
2022/07/23 03:05:55;;;;;;;;;;;19.20;99.90;;;;;;5090949;28;20000;-73
2022/07/23 03:08:20;;;;;;;;;;;19.20;99.90;;;;;;5090986;28;19912;-73
2022/07/23 03:10:46;;;;;;;;;;;19.20;99.90;;;;;;5089220;28;19923;-72
2022/07/23 03:13:11;;;;;;;;;;;19.10;99.90;;;;;;5090451;28;20095;-72
2022/07/23 03:15:37;;;;;;;;;;;19.20;99.90;;;;;;5090515;28;20001;-73
2022/07/23 03:18:02;;;;;;;;;;;19.20;99.90;;;;;;5090794;28;19970;-72
2022/07/23 03:20:28;;;;;;;;;;;19.20;99.90;;;;;;5090397;28;20283;-73
2022/07/23 03:22:53;;;;;;;;;;;19.20;99.90;;;;;;5090554;28;20344;-73
2022/07/23 03:25:19;;;;;;;;;;;19.20;99.90;;;;;;5090295;28;19919;-73
2022/07/23 03:27:45;;;;;;;;;;;19.30;99.90;;;;;;5090522;28;20228;-73
2022/07/23 03:30:11;;;;;;;;;;;19.30;99.90;;;;;;5090330;28;19919;-72
2022/07/23 03:32:37;;;;;;;;;;;19.30;99.90;;;;;;5088790;28;20291;-73
2022/07/23 03:35:02;;;;;;;;;;;19.30;99.90;;;;;;5090561;28;20209;-72
2022/07/23 03:37:28;;;;;;;;;;;19.40;99.90;;;;;;5088607;28;20031;-72
2022/07/23 03:39:53;;;;;;;;;;;19.40;99.90;;;;;;5090595;28;19924;-72
2022/07/23 03:42:19;;;;;;;;;;;19.50;99.90;;;;;;5090313;28;19958;-72
2022/07/23 03:44:44;;;;;;;;;;;19.30;99.90;;;;;;5090274;28;20322;-72
2022/07/23 03:47:10;;;;;;;;;;;19.40;99.90;;;;;;5090492;28;19912;-73
2022/07/23 03:49:35;;;;;;;;;;;19.50;99.90;;;;;;5090415;28;20412;-72
2022/07/23 03:52:01;;;;;;;;;;;19.60;99.90;;;;;;5089106;28;20014;-73
2022/07/23 03:54:26;;;;;;;;;;;19.60;99.90;;;;;;5093697;28;19949;-72
2022/07/23 03:56:52;;;;;;;;;;;19.60;99.90;;;;;;5092701;28;19912;-72
2022/07/23 03:59:17;;;;;;;;;;;19.60;99.90;;;;;;5092623;28;19924;-72
2022/07/23 04:01:43;;;;;;;;;;;19.70;99.90;;;;;;5094072;28;20371;-72
2022/07/23 04:04:08;;;;;;;;;;;19.70;99.90;;;;;;5093824;28;19920;-73
2022/07/23 04:06:35;;;;;;;;;;;19.70;99.90;;;;;;5093778;28;19908;-73
2022/07/23 04:09:00;;;;;;;;;;;19.70;99.90;;;;;;5092320;28;20250;-72
2022/07/23 04:11:26;;;;;;;;;;;19.70;99.90;;;;;;5093519;28;19929;-72
2022/07/23 04:13:51;;;;;;;;;;;19.70;99.90;;;;;;5093493;28;20003;-73
2022/07/23 04:16:17;;;;;;;;;;;19.60;99.90;;;;;;5093604;28;19919;-72
2022/07/23 04:18:42;;;;;;;;;;;19.80;99.90;;;;;;5093108;28;19914;-73
2022/07/23 04:21:08;;;;;;;;;;;19.80;99.90;;;;;;5093402;28;19912;-72
2022/07/23 04:23:33;;;;;;;;;;;19.80;99.90;;;;;;5093624;28;20318;-72
2022/07/23 04:25:58;;;;;;;;;;;19.80;99.90;;;;;;5092078;28;19939;-72
2022/07/23 04:28:24;;;;;;;;;;;19.90;99.90;;;;;;5093024;28;19957;-73
2022/07/23 04:30:49;;;;;;;;;;;19.90;99.90;;;;;;5093378;28;19916;-72
2022/07/23 04:33:15;;;;;;;;;;;19.90;99.90;;;;;;5093583;28;19916;-72
2022/07/23 04:35:40;;;;;;;;;;;19.90;99.90;;;;;;5093215;28;20372;-73
2022/07/23 04:38:06;;;;;;;;;;;20.00;99.90;;;;;;5093087;28;19916;-72
2022/07/23 04:40:31;;;;;;;;;;;20.00;99.90;;;;;;5093044;28;19921;-73
2022/07/23 04:42:57;;;;;;;;;;;20.10;99.90;;;;;;5093372;28;19962;-72
2022/07/23 04:45:25;;;;;;;;;;;20.10;99.90;;;;;;5093162;28;20416;-73
2022/07/23 04:47:51;;;;;;;;;;;20.10;99.90;;;;;;5093507;28;20283;-72
2022/07/23 04:50:21;;;;;;;;;;;20.20;99.90;;;;;;5093122;28;19943;-72
2022/07/23 04:52:47;;;;;;;;;;;20.20;99.90;;;;;;5093364;28;19912;-73
2022/07/23 04:55:12;;;;;;;;;;;20.20;99.90;;;;;;5092884;28;19916;-73
2022/07/23 04:57:38;;;;;;;;;;;20.30;99.90;;;;;;5093147;28;19960;-72
2022/07/23 05:00:04;;;;;;;;;;;20.20;99.90;;;;;;5093188;28;19923;-72
2022/07/23 05:02:29;;;;;;;;;;;20.30;99.90;;;;;;5092733;28;20333;-72
2022/07/23 05:04:55;;;;;;;;;;;20.40;99.90;;;;;;5092016;28;20352;-72
2022/07/23 05:07:20;;;;;;;;;;;20.40;99.90;;;;;;5092827;28;19912;-72
2022/07/23 05:09:46;;;;;;;;;;;20.50;99.90;;;;;;5092456;28;19934;-72
2022/07/23 05:12:11;;;;;;;;;;;20.60;99.90;;;;;;5092410;28;19993;-72
2022/07/23 05:14:37;;;;;;;;;;;20.60;99.90;;;;;;5092555;28;19924;-73
2022/07/23 05:17:02;;;;;;;;;;;20.60;99.90;;;;;;5092489;28;19916;-73
2022/07/23 05:19:28;;;;;;;;;;;20.70;99.90;;;;;;5090793;28;20049;-72
2022/07/23 05:21:53;;;;;;;;;;;20.70;99.90;;;;;;5092272;28;19938;-72
2022/07/23 05:24:19;;;;;;;;;;;20.80;99.90;;;;;;5092219;28;19912;-73
2022/07/23 05:26:44;;;;;;;;;;;20.90;99.90;;;;;;5091999;28;19913;-73
2022/07/23 05:29:10;;;;;;;;;;;20.90;99.90;;;;;;5092034;28;20382;-73
2022/07/23 05:31:35;;;;;;;;;;;21.00;99.90;;;;;;5092025;28;19943;-72
2022/07/23 05:34:01;;;;;;;;;;;21.00;99.90;;;;;;5092033;28;20634;-73
2022/07/23 05:36:26;;;;;;;;;;;21.10;99.90;;;;;;5091852;28;20364;-73
2022/07/23 05:38:52;;;;;;;;;;;21.10;99.90;;;;;;5090142;28;20384;-73
2022/07/23 05:41:17;;;;;;;;;;;21.20;99.90;;;;;;5090378;28;19916;-73
2022/07/23 05:43:43;;;;;;;;;;;21.20;99.90;;;;;;5091849;28;20131;-73
2022/07/23 05:46:09;;;;;;;;;;;21.30;99.90;;;;;;5091815;28;19923;-73
2022/07/23 05:48:34;;;;;;;;;;;21.30;99.90;;;;;;5090723;28;19911;-73
2022/07/23 05:51:00;;;;;;;;;;;21.30;99.90;;;;;;5091649;28;20445;-73
2022/07/23 05:53:26;;;;;;;;;;;21.40;99.90;;;;;;5090208;28;19988;-72
2022/07/23 05:55:51;;;;;;;;;;;21.50;99.90;;;;;;5091244;28;19954;-72
2022/07/23 05:58:17;;;;;;;;;;;21.50;99.90;;;;;;5091523;28;19912;-73
2022/07/23 06:00:42;;;;;;;;;;;21.60;99.90;;;;;;5091145;28;19931;-73
2022/07/23 06:03:08;;;;;;;;;;;21.60;99.90;;;;;;5091895;28;19908;-73
2022/07/23 06:05:33;;;;;;;;;;;21.60;99.90;;;;;;5091455;28;20300;-72
2022/07/23 06:07:59;;;;;;;;;;;21.70;99.90;;;;;;5091700;28;20003;-73
2022/07/23 06:10:24;;;;;;;;;;;21.70;99.90;;;;;;5090064;28;20460;-73
2022/07/23 06:12:50;;;;;;;;;;;21.80;99.90;;;;;;5091340;28;19908;-73
2022/07/23 06:15:15;;;;;;;;;;;21.90;99.90;;;;;;5091245;28;19923;-73
2022/07/23 06:17:41;;;;;;;;;;;21.90;99.90;;;;;;5090754;28;20476;-73
2022/07/23 06:20:07;;;;;;;;;;;22.00;99.90;;;;;;5090980;28;19920;-73
2022/07/23 06:22:33;;;;;;;;;;;22.00;99.90;;;;;;5089852;28;19957;-73
2022/07/23 06:24:58;;;;;;;;;;;22.00;99.90;;;;;;5090740;28;19920;-73
2022/07/23 06:27:24;;;;;;;;;;;22.10;99.90;;;;;;5089510;28;20007;-73
2022/07/23 06:29:49;;;;;;;;;;;22.20;99.90;;;;;;5090828;28;19965;-72
2022/07/23 06:32:15;;;;;;;;;;;22.30;99.90;;;;;;5089502;28;20349;-72
2022/07/23 06:34:40;;;;;;;;;;;22.30;99.90;;;;;;5091057;28;19916;-73
2022/07/23 06:37:06;;;;;;;;;;;22.40;99.90;;;;;;5090929;28;20016;-72
2022/07/23 06:39:31;;;;;;;;;;;22.40;99.90;;;;;;5091281;28;20009;-73
2022/07/23 06:41:57;;;;;;;;;;;22.50;99.90;;;;;;5090949;28;19916;-72
2022/07/23 06:44:22;;;;;;;;;;;22.50;99.90;;;;;;5090980;28;19965;-72
2022/07/23 06:46:48;;;;;;;;;;;22.70;99.90;;;;;;5090760;28;19912;-73
2022/07/23 06:49:13;;;;;;;;;;;22.70;99.90;;;;;;5090721;28;19994;-73
2022/07/23 06:51:39;;;;;;;;;;;22.80;99.90;;;;;;5090560;28;20268;-73
2022/07/23 06:54:04;;;;;;;;;;;22.80;99.90;;;;;;5089429;28;19919;-73
2022/07/23 06:56:30;;;;;;;;;;;23.00;99.90;;;;;;5089228;28;19914;-73
2022/07/23 06:58:55;;;;;;;;;;;23.10;99.90;;;;;;5089096;28;19966;-73
2022/07/23 07:01:21;;;;;;;;;;;23.10;99.90;;;;;;5089229;28;19998;-72
2022/07/23 07:03:47;;;;;;;;;;;23.10;99.90;;;;;;5090658;28;20313;-73
2022/07/23 07:06:12;;;;;;;;;;;23.20;99.90;;;;;;5090348;28;19965;-73
2022/07/23 07:08:38;;;;;;;;;;;23.30;99.90;;;;;;5090847;28;19931;-72
2022/07/23 07:11:03;;;;;;;;;;;23.40;99.90;;;;;;5090287;28;19913;-73
2022/07/23 07:13:28;;;;;;;;;;;23.50;99.90;;;;;;5090605;28;19916;-73
2022/07/23 07:15:54;;;;;;;;;;;23.60;99.90;;;;;;5072273;28;19920;-73
2022/07/23 07:18:19;;;;;;;;;;;23.60;99.90;;;;;;5090899;28;19919;-73
2022/07/23 07:20:45;;;;;;;;;;;23.60;99.90;;;;;;5090458;28;19916;-73
2022/07/23 07:23:11;;;;;;;;;;;23.70;99.90;;;;;;5090942;28;19912;-73
2022/07/23 07:25:37;;;;;;;;;;;23.90;99.90;;;;;;5090673;28;20288;-74
2022/07/23 07:28:03;;;;;;;;;;;24.00;99.90;;;;;;5091929;28;19912;-73
2022/07/23 07:30:28;;;;;;;;;;;24.10;99.90;;;;;;5094450;28;19919;-73
2022/07/23 07:32:54;;;;;;;;;;;24.20;99.90;;;;;;5094623;28;19916;-73
2022/07/23 07:35:19;;;;;;;;;;;24.30;99.90;;;;;;5094631;28;20041;-73
2022/07/23 07:37:44;;;;;;;;;;;24.30;99.90;;;;;;5094157;28;19916;-73
2022/07/23 07:40:10;;;;;;;;;;;24.50;99.90;;;;;;5092846;28;19946;-73
2022/07/23 07:42:44;;;;;;;;;;;24.50;99.90;;;;;;5094196;28;19919;-73
2022/07/23 07:45:09;;;;;;;;;;;24.50;99.90;;;;;;5094099;28;19912;-73
2022/07/23 07:47:35;;;;;;;;;;;24.60;99.90;;;;;;5094220;28;19966;-73
2022/07/23 07:50:00;;;;;;;;;;;24.70;99.90;;;;;;5094070;28;19981;-73
2022/07/23 07:52:26;;;;;;;;;;;24.80;99.90;;;;;;5094016;28;19912;-73
2022/07/23 07:54:51;;;;;;;;;;;24.90;99.90;;;;;;5093864;28;20356;-73
2022/07/23 07:57:17;;;;;;;;;;;25.10;99.90;;;;;;5093905;28;19912;-73
2022/07/23 07:59:42;;;;;;;;;;;25.30;99.90;;;;;;5094060;28;19923;-73
2022/07/23 08:02:08;;;;;;;;;;;25.60;99.90;;;;;;5094107;28;19939;-73
2022/07/23 08:04:33;;;;;;;;;;;25.80;99.90;;;;;;5093678;28;19962;-74
2022/07/23 08:06:59;;;;;;;;;;;26.00;99.90;;;;;;5092314;28;19919;-73
2022/07/23 08:09:24;;;;;;;;;;;26.10;99.90;;;;;;5093405;28;20011;-73
2022/07/23 08:11:51;;;;;;;;;;;26.10;99.90;;;;;;5092126;28;19912;-73
2022/07/23 08:14:17;;;;;;;;;;;26.20;99.90;;;;;;5093471;28;19912;-73
2022/07/23 08:16:43;;;;;;;;;;;26.30;99.90;;;;;;5092039;28;19985;-74
2022/07/23 08:19:08;;;;;;;;;;;26.40;99.90;;;;;;5093821;28;19924;-73
2022/07/23 08:21:33;;;;;;;;;;;26.60;99.90;;;;;;5093245;28;19912;-74
2022/07/23 08:23:59;;;;;;;;;;;26.60;99.90;;;;;;5093574;28;19924;-73
2022/07/23 08:26:24;;;;;;;;;;;26.80;99.90;;;;;;5093203;28;19912;-73
2022/07/23 08:28:50;;;;;;;;;;;27.00;99.90;;;;;;5093535;28;19934;-72
2022/07/23 08:31:17;;;;;;;;;;;27.20;99.90;;;;;;5093311;28;19908;-72
2022/07/23 08:33:43;;;;;;;;;;;27.20;99.90;;;;;;5093720;28;19912;-74
2022/07/23 08:36:08;;;;;;;;;;;27.30;99.50;;;;;;5093034;28;20359;-74
2022/07/23 08:38:35;;;;;;;;;;;27.50;99.30;;;;;;5093103;28;19923;-72
2022/07/23 08:41:01;;;;;;;;;;;27.70;98.40;;;;;;5092393;28;19924;-72
2022/07/23 08:43:27;;;;;;;;;;;27.80;97.70;;;;;;5093371;28;20407;-73
2022/07/23 08:45:56;;;;;;;;;;;28.10;97.40;;;;;;5093049;28;20341;-73
2022/07/23 08:48:23;;;;;;;;;;;28.30;96.40;;;;;;5093109;28;19999;-73
2022/07/23 08:50:49;;;;;;;;;;;28.50;96.40;;;;;;5092740;28;19919;-73
2022/07/23 08:53:16;;;;;;;;;;;28.60;95.90;;;;;;5093003;28;19969;-73
2022/07/23 08:55:45;;;;;;;;;;;28.70;95.80;;;;;;5092776;28;19916;-73
2022/07/23 08:58:11;;;;;;;;;;;28.80;95.40;;;;;;5091249;28;19957;-72
2022/07/23 09:00:36;;;;;;;;;;;28.90;95.00;;;;;;5092478;28;19924;-73
2022/07/23 09:03:02;;;;;;;;;;;28.90;94.90;;;;;;5092751;28;20295;-73
2022/07/23 09:05:27;;;;;;;;;;;29.10;95.10;;;;;;5092389;28;19912;-73
2022/07/23 09:08:07;;;;;;;;;;;29.10;94.90;;;;;;5092688;28;20314;-73
2022/07/23 09:10:43;;;;;;;;;;;29.00;94.50;;;;;;5092317;28;19913;-73
2022/07/23 09:13:24;;;;;;;;;;;29.00;95.20;;;;;;5092529;28;20014;-72
2022/07/23 09:15:50;;;;;;;;;;;29.20;94.20;;;;;;5092292;28;20290;-72
2022/07/23 09:18:16;;;;;;;;;;;29.50;94.30;;;;;;5092658;28;19916;-73
2022/07/23 09:20:41;;;;;;;;;;;29.70;94.00;;;;;;5092627;28;19923;-73
2022/07/23 09:23:07;;;;;;;;;;;29.90;93.60;;;;;;5091950;28;20372;-73
2022/07/23 09:25:32;;;;;;;;;;;29.80;93.00;;;;;;5091901;28;19965;-73
2022/07/23 09:28:02;;;;;;;;;;;29.70;93.00;;;;;;5092173;28;20010;-73
2022/07/23 09:30:29;;;;;;;;;;;29.90;92.90;;;;;;5092039;28;19916;-73
2022/07/23 09:33:07;;;;;;;;;;;30.00;92.90;;;;;;5092117;28;19923;-73
2022/07/23 09:35:46;;;;;;;;;;;30.00;92.80;;;;;;5092501;28;19999;-73
2022/07/23 09:38:12;;;;;;;;;;;30.10;92.20;;;;;;5091614;28;19998;-73
2022/07/23 09:40:38;;;;;;;;;;;30.00;92.00;;;;;;5091728;28;19928;-73
2022/07/23 09:43:03;;;;;;;;;;;30.00;92.10;;;;;;5092059;28;19919;-73
2022/07/23 09:45:29;;;;;;;;;;;30.00;91.80;;;;;;5091617;28;19913;-74
2022/07/23 09:48:30;;;;;;;;;;;29.80;92.20;;;;;;5091842;28;20386;-73
2022/07/23 09:51:01;;;;;;;;;;;29.80;92.40;;;;;;5012248;28;20016;-73
2022/07/23 09:53:29;;;;;;;;;;;29.90;92.30;;;;;;5080817;28;19961;-74
2022/07/23 09:55:58;;;;;;;;;;;30.00;92.10;;;;;;5089956;28;20008;-73
2022/07/23 09:58:26;;;;;;;;;;;30.10;92.30;;;;;;5091367;28;19912;-73
2022/07/23 10:00:52;;;;;;;;;;;30.30;92.00;;;;;;5091182;28;19916;-73
2022/07/23 10:03:19;;;;;;;;;;;30.30;91.70;;;;;;5089588;28;19966;-73
2022/07/23 10:05:44;;;;;;;;;;;30.20;91.30;;;;;;5089985;28;20298;-73
2022/07/23 10:08:11;;;;;;;;;;;30.20;91.40;;;;;;5091600;28;20003;-74
2022/07/23 10:10:39;;;;;;;;;;;30.20;91.20;;;;;;5091425;28;19981;-74
2022/07/23 10:15:50;;;;;;;;;;;30.30;91.20;;;;;;5091707;28;20331;-73
2022/07/23 10:18:15;;;;;;;;;;;30.60;91.10;;;;;;5091613;28;20325;-73
2022/07/23 10:20:41;;;;;;;;;;;30.60;90.60;;;;;;5091061;28;19922;-73
2022/07/23 10:23:25;;;;;;;;;;;30.70;90.60;;;;;;5091663;28;19912;-72
2022/07/23 10:26:09;;;;;;;;;;;30.70;90.20;;;;;;5090908;28;19916;-73
2022/07/23 10:28:43;;;;;;;;;;;30.70;90.10;;;;;;5089756;28;20002;-73
2022/07/23 10:31:14;;;;;;;;;;;30.80;90.10;;;;;;5091253;28;19916;-73
2022/07/23 10:33:49;;;;;;;;;;;31.00;89.20;;;;;;5090700;28;20018;-73
2022/07/23 10:36:23;;;;;;;;;;;31.50;88.80;;;;;;5090830;28;19920;-73
2022/07/23 10:38:55;;;;;;;;;;;31.70;87.50;;;;;;5090446;28;19924;-73
2022/07/23 10:41:38;;;;;;;;;;;31.70;87.50;;;;;;5090603;28;19960;-73
2022/07/23 10:44:17;;;;;;;;;;;31.80;86.70;;;;;;5090798;28;20356;-73
2022/07/23 10:49:28;;;;;;;;;;;31.70;85.70;;;;;;5091065;28;20002;-73
2022/07/23 10:52:12;;;;;;;;;;;31.50;86.00;;;;;;5090762;28;20230;-73
2022/07/23 10:54:37;;;;;;;;;;;31.60;85.80;;;;;;5090901;28;19939;-73
2022/07/23 10:57:07;;;;;;;;;;;31.90;86.10;;;;;;5090711;28;19908;-74
2022/07/23 10:59:52;;;;;;;;;;;32.50;84.80;;;;;;5090347;28;19924;-73
2022/07/23 11:02:22;;;;;;;;;;;32.80;83.90;;;;;;5090030;28;20352;-74
2022/07/23 11:04:49;;;;;;;;;;;33.10;82.30;;;;;;5091064;28;19916;-73
2022/07/23 11:07:15;;;;;;;;;;;33.20;81.70;;;;;;5090461;28;19956;-73
2022/07/23 11:09:42;;;;;;;;;;;33.50;81.60;;;;;;5090298;28;19922;-73
2022/07/23 11:12:14;;;;;;;;;;;33.60;80.90;;;;;;5090669;28;19988;-73
2022/07/23 11:14:58;;;;;;;;;;;33.60;80.70;;;;;;5090547;28;19916;-73
2022/07/23 11:17:27;;;;;;;;;;;32.90;81.20;;;;;;5090741;28;20391;-73
2022/07/23 11:20:07;;;;;;;;;;;32.50;80.70;;;;;;5090307;28;20307;-74
2022/07/23 11:22:34;;;;;;;;;;;32.40;81.60;;;;;;5089116;28;19919;-74
2022/07/23 11:24:59;;;;;;;;;;;31.90;81.80;;;;;;5090325;28;19916;-75
2022/07/23 11:27:36;;;;;;;;;;;31.90;81.70;;;;;;5090312;28;19957;-73
2022/07/23 11:30:02;;;;;;;;;;;32.00;81.50;;;;;;5090830;28;19941;-74
2022/07/23 11:32:29;;;;;;;;;;;32.30;80.90;;;;;;5088906;28;19908;-73
2022/07/23 11:34:54;;;;;;;;;;;32.60;80.10;;;;;;5090356;28;19920;-73
2022/07/23 11:37:33;;;;;;;;;;;32.50;80.20;;;;;;5089038;28;19912;-73
2022/07/23 11:39:59;;;;;;;;;;;32.30;80.20;;;;;;5090070;28;19928;-73
2022/07/23 11:42:25;;;;;;;;;;;32.20;80.60;;;;;;5088696;28;19916;-74
2022/07/23 11:44:51;;;;;;;;;;;32.30;79.50;;;;;;5090166;28;20394;-73
2022/07/23 11:47:20;;;;;;;;;;;32.50;78.90;;;;;;5090479;28;19912;-73
2022/07/23 11:49:53;;;;;;;;;;;32.60;77.70;;;;;;5090032;28;19962;-74
2022/07/23 11:52:19;;;;;;;;;;;32.30;79.00;;;;;;5090131;28;19917;-73
2022/07/23 11:54:50;;;;;;;;;;;32.30;79.10;;;;;;5088614;28;20342;-72
2022/07/23 11:57:16;;;;;;;;;;;32.50;79.00;;;;;;5090337;28;19912;-74
2022/07/23 11:59:43;;;;;;;;;;;32.50;78.20;;;;;;5090215;28;19985;-73
2022/07/23 12:02:08;;;;;;;;;;;32.40;78.50;;;;;;5090095;28;20360;-74
2022/07/23 12:04:41;;;;;;;;;;;32.00;79.30;;;;;;5088806;28;19938;-73
2022/07/23 12:07:22;;;;;;;;;;;31.60;80.50;;;;;;5090244;28;19934;-74
2022/07/23 12:09:48;;;;;;;;;;;31.00;81.10;;;;;;5090044;28;19999;-74
2022/07/23 12:12:13;;;;;;;;;;;30.40;82.10;;;;;;5089990;28;20051;-73
2022/07/23 12:14:47;;;;;;;;;;;29.90;83.60;;;;;;5090512;28;19955;-74
2022/07/23 12:17:12;;;;;;;;;;;29.70;84.10;;;;;;5093397;28;19919;-73
2022/07/23 12:19:38;;;;;;;;;;;29.70;84.40;;;;;;5092041;28;19924;-74
2022/07/23 12:22:04;;;;;;;;;;;30.00;84.00;;;;;;5093456;28;19937;-73
2022/07/23 12:24:29;;;;;;;;;;;30.40;83.10;;;;;;5093236;28;19912;-75
2022/07/23 12:27:08;;;;;;;;;;;30.70;82.50;;;;;;5091883;28;19916;-74
2022/07/23 12:29:34;;;;;;;;;;;30.90;82.30;;;;;;5093311;28;19912;-73
2022/07/23 12:31:59;;;;;;;;;;;31.20;82.50;;;;;;5093174;28;19912;-73
2022/07/23 12:34:25;;;;;;;;;;;31.30;81.40;;;;;;5091800;28;19934;-74
2022/07/23 12:36:51;;;;;;;;;;;31.20;81.40;;;;;;5093026;28;19913;-73
2022/07/23 12:39:30;;;;;;;;;;;30.90;82.00;;;;;;5092890;28;19927;-73
2022/07/23 12:41:56;;;;;;;;;;;30.60;82.90;;;;;;5091620;28;19912;-73
2022/07/23 12:44:21;;;;;;;;;;;30.10;83.30;;;;;;5093243;28;19912;-74
2022/07/23 12:46:51;;;;;;;;;;;29.70;84.30;;;;;;5091611;28;19913;-73
2022/07/23 12:49:25;;;;;;;;;;;29.50;84.50;;;;;;5092922;28;19919;-73
2022/07/23 12:51:50;;;;;;;;;;;29.50;84.10;;;;;;5092619;28;19912;-73
2022/07/23 12:54:16;;;;;;;;;;;29.60;84.40;;;;;;5091443;28;19965;-72
2022/07/23 12:56:44;;;;;;;;;;;29.60;83.90;;;;;;5091357;28;19919;-73
2022/07/23 12:59:11;;;;;;;;;;;29.70;84.00;;;;;;5091259;28;19916;-72
2022/07/23 13:01:41;;;;;;;;;;;29.60;84.10;;;;;;5091283;28;20425;-74
2022/07/23 13:04:08;;;;;;;;;;;29.40;84.40;;;;;;5092754;28;19912;-73
2022/07/23 13:06:38;;;;;;;;;;;29.30;85.30;;;;;;5092476;28;20390;-73
2022/07/23 13:09:06;;;;;;;;;;;29.30;85.60;;;;;;5092570;28;20010;-73
2022/07/23 13:11:31;;;;;;;;;;;29.20;85.80;;;;;;5092265;28;19931;-72
2022/07/23 13:13:57;;;;;;;;;;;29.20;85.90;;;;;;5091123;28;19913;-73
2022/07/23 13:16:23;;;;;;;;;;;29.30;86.10;;;;;;5092071;28;19918;-74
2022/07/23 13:18:49;;;;;;;;;;;29.30;86.30;;;;;;5092691;28;20010;-74
2022/07/23 13:21:14;;;;;;;;;;;29.20;85.90;;;;;;5092105;28;19919;-74
2022/07/23 13:23:39;;;;;;;;;;;29.20;86.50;;;;;;5092768;28;19916;-74
2022/07/23 13:26:05;;;;;;;;;;;29.10;86.70;;;;;;5091720;28;20336;-74
2022/07/23 13:28:30;;;;;;;;;;;29.00;86.30;;;;;;5092514;28;19916;-74
2022/07/23 13:30:56;;;;;;;;;;;28.90;87.10;;;;;;5090816;28;19919;-74
2022/07/23 13:33:23;;;;;;;;;;;28.90;87.40;;;;;;5093199;28;19939;-72
2022/07/23 13:35:49;;;;;;;;;;;28.90;87.60;;;;;;5092086;28;20394;-72
2022/07/23 13:38:14;;;;;;;;;;;28.90;88.30;;;;;;5091788;28;19998;-73
2022/07/23 13:40:42;;;;;;;;;;;28.90;87.70;;;;;;5091924;28;19926;-73
2022/07/23 13:43:11;;;;;;;;;;;28.90;87.80;;;;;;5092278;28;19965;-73
2022/07/23 13:45:37;;;;;;;;;;;28.90;88.10;;;;;;5091965;28;19916;-73
2022/07/23 13:48:03;;;;;;;;;;;28.80;85.70;;;;;;5091825;28;19923;-74
2022/07/23 13:50:29;;;;;;;;;;;28.70;86.80;;;;;;5090352;28;19982;-73
2022/07/23 13:52:54;;;;;;;;;;;28.50;87.50;;;;;;5091476;28;19996;-73
2022/07/23 13:55:20;;;;;;;;;;;28.50;88.10;;;;;;5091612;28;20292;-73
2022/07/23 13:57:45;;;;;;;;;;;28.50;87.50;;;;;;5089990;28;19915;-73
2022/07/23 14:00:11;;;;;;;;;;;28.40;86.60;;;;;;5089997;28;19965;-72
2022/07/23 14:02:38;;;;;;;;;;;28.30;87.10;;;;;;5091452;28;19919;-73
2022/07/23 14:05:04;;;;;;;;;;;28.20;87.60;;;;;;5090120;28;20390;-73
2022/07/23 14:07:30;;;;;;;;;;;28.20;87.70;;;;;;5091589;28;20271;-72
2022/07/23 14:09:55;;;;;;;;;;;28.30;87.30;;;;;;5091226;28;19919;-73
2022/07/23 14:12:21;;;;;;;;;;;28.30;87.10;;;;;;5089899;28;20415;-73
2022/07/23 14:14:46;;;;;;;;;;;28.30;87.10;;;;;;5089761;28;19912;-73
2022/07/23 14:17:12;;;;;;;;;;;28.30;86.90;;;;;;5091147;28;19912;-73
2022/07/23 14:19:37;;;;;;;;;;;28.10;86.90;;;;;;5089789;28;20005;-73